Armagh, PA

12:57 AM EST on February 27, 2015 (GMT -0500)
Seward | Change Station
CLOSE
Current Station
Personal Weather Station
Location: Seward, PA
Elevation: 1138 ft
Nearby Weather Stations

Elev 1138 ft 40.41 °N, 79.02 °W | Updated 8 minutes ago

Overcast
Overcast
13.5 °F
Feels Like 14 °F
N
0.0
Wind Variable Wind from NNW
Gusts 4.0 mph

Today
High -- | Low -- °F
--% Chance of Precip.
Yesterday
High -- | Low -- °F
Precip. -- in
6:53 AM 6:05 PM
Waxing Gibbous, 65% visible
Pressure 30.06 in
Visibility 3.0 miles
Clouds Scattered Clouds 2400 ft
Overcast 9500 ft
Windchill 14 °F
Dew Point 9 °F
Humidity 83%
Rainfall 0.00 in
Snow Depth Not available.
UV 0 out of 12
Pollen .50 out of 12
Ozone Good
PM2.5 Moderate
Flu Activity Widespread
SPECI KJST 270526Z AUTO 30012KT 3SM -SN BR SCT024 OVC095 M12/M14 A3006 RMK AO2 P0000 T11171139

More Conditions Fewer Conditions

Pressure 30.06 in
Visibility 3.0 miles
Clouds Scattered Clouds 2400 ft
Overcast 9500 ft
Windchill 14 °F
Dew Point 9 °F
Humidity 83%
Rainfall 0.00 in
Snow Depth Not available.
UV 0 out of 12
Pollen .50 out of 12
Ozone Good
PM2.5 Moderate
Flu Activity Widespread
SPECI KJST 270526Z AUTO 30012KT 3SM -SN BR SCT024 OVC095 M12/M14 A3006 RMK AO2 P0000 T11171139

More Conditions Fewer Conditions

10-Day Weather Forecast

Almanac

Astronomy

Feb. 27, 2015 Rise Set
Actual Time 6:53 AM EST 6:05 PM EST
Civil Twilight 6:25 AM EST 6:32 PM EST
Nautical Twilight 5:54 AM EST 7:04 PM EST
Astronomical Twilight 5:22 AM EST 7:35 PM EST
Moon 12:53 PM EST 2:42 AM EST
Length of Visible Light 12h 06m
Length of Day
11h 11m
Tomorrow will be 2m 38s longer.
Waxing Gibbous, 65% of the Moon is Illuminated
Today
Waxing Gibbous
Mar 5
Full
Mar 13
Last Quarter
Mar 20
New
Mar 27
First Quarter

Today's Extremes

State Highs State Lows

Community

WunderPhotos

Upload Photos

1,800,642 photos uploaded!

Nearby

Air Quality

  Air Quality AQ Index Pollutant
Yesterday Good
PM2.5
Yesterday Good
OZONE
Current Moderate
PM2.5
Current Good
OZONE
Friday Good
PM2.5
Saturday Moderate
PM2.5

Snow Depth

Station Depth Elevation
No new snow has been reported.

Earthquake Activity

City Distance Mag. Time & Date
No recent earthquake activity has been reported nearby.
Minimum magnitude displayed is 2.5.

Coastal Water Temperatures

Place Temperature
No Stations Reporting

Nearby Weather Stations